sensor_id;sensor_type;location;lat;lon;timestamp;temperature;humidity
5118;DHT22;2578;51.622;7.046;2023-07-29T00:01:11;18.60;99.90
5118;DHT22;2578;51.622;7.046;2023-07-29T00:03:37;18.60;99.90
5118;DHT22;2578;51.622;7.046;2023-07-29T00:06:03;18.50;99.90
5118;DHT22;2578;51.622;7.046;2023-07-29T00:08:28;18.50;99.90
5118;DHT22;2578;51.622;7.046;2023-07-29T00:10:54;18.50;99.90
5118;DHT22;2578;51.622;7.046;2023-07-29T00:13:19;18.50;99.90
5118;DHT22;2578;51.622;7.046;2023-07-29T00:15:45;18.50;99.90
5118;DHT22;2578;51.622;7.046;2023-07-29T00:18:11;18.50;99.90
5118;DHT22;2578;51.622;7.046;2023-07-29T00:20:36;18.50;99.90
5118;DHT22;2578;51.622;7.046;2023-07-29T00:23:02;18.50;99.90
5118;DHT22;2578;51.622;7.046;2023-07-29T00:25:28;18.40;99.90
5118;DHT22;2578;51.622;7.046;2023-07-29T00:27:56;18.40;99.90
5118;DHT22;2578;51.622;7.046;2023-07-29T00:30:22;18.50;99.90
5118;DHT22;2578;51.622;7.046;2023-07-29T00:32:47;18.40;99.90
5118;DHT22;2578;51.622;7.046;2023-07-29T00:35:13;18.40;99.90
5118;DHT22;2578;51.622;7.046;2023-07-29T00:37:39;18.40;99.90
5118;DHT22;2578;51.622;7.046;2023-07-29T00:40:12;18.40;99.90
5118;DHT22;2578;51.622;7.046;2023-07-29T00:42:39;18.40;99.90
5118;DHT22;2578;51.622;7.046;2023-07-29T00:45:05;18.40;99.90
5118;DHT22;2578;51.622;7.046;2023-07-29T00:47:33;18.50;99.90
5118;DHT22;2578;51.622;7.046;2023-07-29T00:49:58;18.50;99.90
5118;DHT22;2578;51.622;7.046;2023-07-29T00:52:24;18.40;99.90
5118;DHT22;2578;51.622;7.046;2023-07-29T00:54:50;18.40;99.90
5118;DHT22;2578;51.622;7.046;2023-07-29T00:57:16;18.40;99.90
5118;DHT22;2578;51.622;7.046;2023-07-29T00:59:43;18.40;99.90
5118;DHT22;2578;51.622;7.046;2023-07-29T01:02:09;18.30;99.90
5118;DHT22;2578;51.622;7.046;2023-07-29T01:04:35;18.30;99.90
5118;DHT22;2578;51.622;7.046;2023-07-29T01:12:26;18.40;99.90
5118;DHT22;2578;51.622;7.046;2023-07-29T01:18:06;18.50;99.90
5118;DHT22;2578;51.622;7.046;2023-07-29T01:20:37;18.50;99.90
5118;DHT22;2578;51.622;7.046;2023-07-29T01:23:04;18.50;99.90
5118;DHT22;2578;51.622;7.046;2023-07-29T01:25:29;18.50;99.90
5118;DHT22;2578;51.622;7.046;2023-07-29T01:27:55;18.60;99.90
5118;DHT22;2578;51.622;7.046;2023-07-29T01:30:28;18.60;99.90
5118;DHT22;2578;51.622;7.046;2023-07-29T01:32:59;18.70;99.90
5118;DHT22;2578;51.622;7.046;2023-07-29T01:35:33;18.70;99.90
5118;DHT22;2578;51.622;7.046;2023-07-29T01:38:18;18.70;99.90
5118;DHT22;2578;51.622;7.046;2023-07-29T01:40:46;18.70;99.90
5118;DHT22;2578;51.622;7.046;2023-07-29T01:43:12;18.80;99.90
5118;DHT22;2578;51.622;7.046;2023-07-29T01:45:38;18.90;99.90
5118;DHT22;2578;51.622;7.046;2023-07-29T01:48:05;19.00;99.90
5118;DHT22;2578;51.622;7.046;2023-07-29T01:50:31;19.10;99.90
5118;DHT22;2578;51.622;7.046;2023-07-29T01:53:00;19.00;99.90
5118;DHT22;2578;51.622;7.046;2023-07-29T01:55:25;19.10;99.90
5118;DHT22;2578;51.622;7.046;2023-07-29T01:57:51;19.20;99.90
5118;DHT22;2578;51.622;7.046;2023-07-29T02:00:18;19.20;99.90
5118;DHT22;2578;51.622;7.046;2023-07-29T02:02:44;19.20;99.90
5118;DHT22;2578;51.622;7.046;2023-07-29T02:05:10;19.20;99.90
5118;DHT22;2578;51.622;7.046;2023-07-29T02:07:35;19.20;99.90
5118;DHT22;2578;51.622;7.046;2023-07-29T02:10:01;19.30;99.90
5118;DHT22;2578;51.622;7.046;2023-07-29T02:12:27;19.30;99.90
5118;DHT22;2578;51.622;7.046;2023-07-29T02:14:52;19.30;99.90
5118;DHT22;2578;51.622;7.046;2023-07-29T02:17:18;19.30;99.90
5118;DHT22;2578;51.622;7.046;2023-07-29T02:19:43;19.30;99.90
5118;DHT22;2578;51.622;7.046;2023-07-29T02:22:12;19.30;99.90
5118;DHT22;2578;51.622;7.046;2023-07-29T02:24:38;19.30;99.90
5118;DHT22;2578;51.622;7.046;2023-07-29T02:27:04;19.30;99.90
5118;DHT22;2578;51.622;7.046;2023-07-29T02:29:29;19.40;99.90
5118;DHT22;2578;51.622;7.046;2023-07-29T02:31:55;19.40;99.90
5118;DHT22;2578;51.622;7.046;2023-07-29T02:34:21;19.50;99.90
5118;DHT22;2578;51.622;7.046;2023-07-29T02:36:47;19.50;99.90
5118;DHT22;2578;51.622;7.046;2023-07-29T02:39:12;19.50;99.90
5118;DHT22;2578;51.622;7.046;2023-07-29T02:41:38;19.60;99.90
5118;DHT22;2578;51.622;7.046;2023-07-29T02:44:05;21.00;99.90
5118;DHT22;2578;51.622;7.046;2023-07-29T02:46:30;19.60;99.90
5118;DHT22;2578;51.622;7.046;2023-07-29T02:48:56;19.60;99.90
5118;DHT22;2578;51.622;7.046;2023-07-29T02:51:22;19.60;99.90
5118;DHT22;2578;51.622;7.046;2023-07-29T02:53:47;19.90;99.90
5118;DHT22;2578;51.622;7.046;2023-07-29T02:56:13;19.50;99.90
5118;DHT22;2578;51.622;7.046;2023-07-29T02:58:39;19.50;99.90
5118;DHT22;2578;51.622;7.046;2023-07-29T03:01:06;19.50;99.90
5118;DHT22;2578;51.622;7.046;2023-07-29T03:03:32;19.50;99.90
5118;DHT22;2578;51.622;7.046;2023-07-29T03:06:00;19.50;99.90
5118;DHT22;2578;51.622;7.046;2023-07-29T03:08:26;19.40;99.90
5118;DHT22;2578;51.622;7.046;2023-07-29T03:10:52;19.40;99.90
5118;DHT22;2578;51.622;7.046;2023-07-29T03:13:17;19.40;99.90
5118;DHT22;2578;51.622;7.046;2023-07-29T03:15:43;19.40;99.90
5118;DHT22;2578;51.622;7.046;2023-07-29T03:18:09;19.40;99.90
5118;DHT22;2578;51.622;7.046;2023-07-29T03:20:34;19.20;99.90
5118;DHT22;2578;51.622;7.046;2023-07-29T03:23:00;19.30;99.90
5118;DHT22;2578;51.622;7.046;2023-07-29T03:25:25;19.30;99.90
5118;DHT22;2578;51.622;7.046;2023-07-29T03:27:51;19.30;99.90
5118;DHT22;2578;51.622;7.046;2023-07-29T03:30:20;19.30;99.90
5118;DHT22;2578;51.622;7.046;2023-07-29T03:32:46;19.30;99.90
5118;DHT22;2578;51.622;7.046;2023-07-29T03:35:12;19.30;99.90
5118;DHT22;2578;51.622;7.046;2023-07-29T03:37:37;19.30;99.90
5118;DHT22;2578;51.622;7.046;2023-07-29T03:40:03;19.40;99.90
5118;DHT22;2578;51.622;7.046;2023-07-29T03:42:29;19.30;99.90
5118;DHT22;2578;51.622;7.046;2023-07-29T03:44:55;19.30;99.90
5118;DHT22;2578;51.622;7.046;2023-07-29T03:47:20;19.30;99.90
5118;DHT22;2578;51.622;7.046;2023-07-29T03:49:46;19.30;99.90
5118;DHT22;2578;51.622;7.046;2023-07-29T03:52:12;19.20;99.90
5118;DHT22;2578;51.622;7.046;2023-07-29T03:54:37;19.20;99.90
5118;DHT22;2578;51.622;7.046;2023-07-29T03:57:03;19.20;99.90
5118;DHT22;2578;51.622;7.046;2023-07-29T03:59:29;19.30;99.90
5118;DHT22;2578;51.622;7.046;2023-07-29T04:01:54;19.20;99.90
5118;DHT22;2578;51.622;7.046;2023-07-29T04:04:20;19.20;99.90
5118;DHT22;2578;51.622;7.046;2023-07-29T04:06:46;19.20;99.90
5118;DHT22;2578;51.622;7.046;2023-07-29T04:09:11;19.10;99.90
5118;DHT22;2578;51.622;7.046;2023-07-29T04:11:37;19.10;99.90
5118;DHT22;2578;51.622;7.046;2023-07-29T04:14:02;19.00;99.90
5118;DHT22;2578;51.622;7.046;2023-07-29T04:16:28;19.00;99.90
5118;DHT22;2578;51.622;7.046;2023-07-29T04:18:54;19.00;99.90
5118;DHT22;2578;51.622;7.046;2023-07-29T04:21:20;18.80;99.90
5118;DHT22;2578;51.622;7.046;2023-07-29T04:23:45;18.80;99.90
5118;DHT22;2578;51.622;7.046;2023-07-29T04:26:11;18.80;99.90
5118;DHT22;2578;51.622;7.046;2023-07-29T04:28:36;18.70;99.90
5118;DHT22;2578;51.622;7.046;2023-07-29T04:31:02;18.60;99.90
5118;DHT22;2578;51.622;7.046;2023-07-29T04:33:29;18.50;99.90
5118;DHT22;2578;51.622;7.046;2023-07-29T04:35:55;18.50;99.90
5118;DHT22;2578;51.622;7.046;2023-07-29T04:38:21;18.50;99.90
5118;DHT22;2578;51.622;7.046;2023-07-29T04:40:49;18.50;99.90
5118;DHT22;2578;51.622;7.046;2023-07-29T04:43:14;18.40;99.90
5118;DHT22;2578;51.622;7.046;2023-07-29T04:45:43;18.40;99.90
5118;DHT22;2578;51.622;7.046;2023-07-29T04:48:09;18.30;99.90
5118;DHT22;2578;51.622;7.046;2023-07-29T04:50:35;18.30;99.90
5118;DHT22;2578;51.622;7.046;2023-07-29T04:53:00;18.30;99.90
5118;DHT22;2578;51.622;7.046;2023-07-29T04:55:26;18.30;99.90
5118;DHT22;2578;51.622;7.046;2023-07-29T04:57:51;18.30;99.90
5118;DHT22;2578;51.622;7.046;2023-07-29T05:00:17;18.40;99.90
5118;DHT22;2578;51.622;7.046;2023-07-29T05:02:43;18.30;99.90
5118;DHT22;2578;51.622;7.046;2023-07-29T05:05:08;18.30;99.90
5118;DHT22;2578;51.622;7.046;2023-07-29T05:07:34;18.20;99.90
5118;DHT22;2578;51.622;7.046;2023-07-29T05:10:00;18.20;99.90
5118;DHT22;2578;51.622;7.046;2023-07-29T05:12:26;18.20;99.90
5118;DHT22;2578;51.622;7.046;2023-07-29T05:14:52;18.20;99.90
5118;DHT22;2578;51.622;7.046;2023-07-29T05:17:18;18.10;99.90
5118;DHT22;2578;51.622;7.046;2023-07-29T05:19:43;18.10;99.90
5118;DHT22;2578;51.622;7.046;2023-07-29T05:22:10;18.10;99.90
5118;DHT22;2578;51.622;7.046;2023-07-29T05:24:35;18.20;99.90
5118;DHT22;2578;51.622;7.046;2023-07-29T05:27:01;18.20;99.90
5118;DHT22;2578;51.622;7.046;2023-07-29T05:29:26;18.20;99.90
5118;DHT22;2578;51.622;7.046;2023-07-29T05:31:52;18.30;99.90
5118;DHT22;2578;51.622;7.046;2023-07-29T05:34:18;18.30;99.90
5118;DHT22;2578;51.622;7.046;2023-07-29T05:36:44;18.20;99.90
5118;DHT22;2578;51.622;7.046;2023-07-29T05:39:09;18.20;99.90
5118;DHT22;2578;51.622;7.046;2023-07-29T05:41:35;18.30;99.90
5118;DHT22;2578;51.622;7.046;2023-07-29T05:44:01;18.10;99.90
5118;DHT22;2578;51.622;7.046;2023-07-29T05:46:26;18.10;99.90
5118;DHT22;2578;51.622;7.046;2023-07-29T05:48:52;18.10;99.90
5118;DHT22;2578;51.622;7.046;2023-07-29T05:51:17;18.10;99.90
5118;DHT22;2578;51.622;7.046;2023-07-29T05:53:43;18.10;99.90
5118;DHT22;2578;51.622;7.046;2023-07-29T05:56:09;18.10;99.90
5118;DHT22;2578;51.622;7.046;2023-07-29T05:58:35;18.00;99.90
5118;DHT22;2578;51.622;7.046;2023-07-29T06:01:01;18.00;99.90
5118;DHT22;2578;51.622;7.046;2023-07-29T06:03:27;17.90;99.90
5118;DHT22;2578;51.622;7.046;2023-07-29T06:05:53;17.90;99.90
5118;DHT22;2578;51.622;7.046;2023-07-29T06:08:19;17.90;99.90
5118;DHT22;2578;51.622;7.046;2023-07-29T06:10:45;17.90;99.90
5118;DHT22;2578;51.622;7.046;2023-07-29T06:13:10;17.90;99.90
5118;DHT22;2578;51.622;7.046;2023-07-29T06:15:36;17.90;99.90
5118;DHT22;2578;51.622;7.046;2023-07-29T06:18:02;17.80;99.90
5118;DHT22;2578;51.622;7.046;2023-07-29T06:20:28;17.90;99.90
5118;DHT22;2578;51.622;7.046;2023-07-29T06:22:53;17.90;99.90
5118;DHT22;2578;51.622;7.046;2023-07-29T06:25:19;17.80;99.90
5118;DHT22;2578;51.622;7.046;2023-07-29T06:27:45;17.80;99.90
5118;DHT22;2578;51.622;7.046;2023-07-29T06:30:11;17.90;99.90
5118;DHT22;2578;51.622;7.046;2023-07-29T06:32:36;18.00;99.90
5118;DHT22;2578;51.622;7.046;2023-07-29T06:35:02;18.00;99.90
5118;DHT22;2578;51.622;7.046;2023-07-29T06:37:28;18.10;99.90
5118;DHT22;2578;51.622;7.046;2023-07-29T06:39:53;18.30;99.90
5118;DHT22;2578;51.622;7.046;2023-07-29T06:42:19;18.40;99.90
5118;DHT22;2578;51.622;7.046;2023-07-29T06:44:44;18.30;99.90
5118;DHT22;2578;51.622;7.046;2023-07-29T06:47:11;18.30;99.90
5118;DHT22;2578;51.622;7.046;2023-07-29T06:49:37;18.50;99.90
5118;DHT22;2578;51.622;7.046;2023-07-29T06:52:03;18.70;99.90
5118;DHT22;2578;51.622;7.046;2023-07-29T06:54:28;18.70;99.90
5118;DHT22;2578;51.622;7.046;2023-07-29T06:56:54;18.80;99.90
5118;DHT22;2578;51.622;7.046;2023-07-29T06:59:19;18.70;99.90
5118;DHT22;2578;51.622;7.046;2023-07-29T07:01:45;18.80;99.90
5118;DHT22;2578;51.622;7.046;2023-07-29T07:04:11;18.80;99.90
5118;DHT22;2578;51.622;7.046;2023-07-29T07:06:36;18.70;99.90
5118;DHT22;2578;51.622;7.046;2023-07-29T07:09:02;18.80;99.90
5118;DHT22;2578;51.622;7.046;2023-07-29T07:11:28;18.90;99.90
5118;DHT22;2578;51.622;7.046;2023-07-29T07:13:53;19.30;99.90
5118;DHT22;2578;51.622;7.046;2023-07-29T07:16:19;19.30;99.90
5118;DHT22;2578;51.622;7.046;2023-07-29T07:18:44;19.60;99.90
5118;DHT22;2578;51.622;7.046;2023-07-29T07:21:10;19.60;99.90
5118;DHT22;2578;51.622;7.046;2023-07-29T07:23:36;21.60;99.90
5118;DHT22;2578;51.622;7.046;2023-07-29T07:26:01;19.90;99.90
5118;DHT22;2578;51.622;7.046;2023-07-29T07:28:28;20.40;99.90
5118;DHT22;2578;51.622;7.046;2023-07-29T07:30:53;21.00;99.90
5118;DHT22;2578;51.622;7.046;2023-07-29T07:33:21;21.70;99.90
5118;DHT22;2578;51.622;7.046;2023-07-29T07:35:47;22.10;99.90
5118;DHT22;2578;51.622;7.046;2023-07-29T07:38:12;21.80;99.90
5118;DHT22;2578;51.622;7.046;2023-07-29T07:40:38;21.40;99.90
5118;DHT22;2578;51.622;7.046;2023-07-29T07:43:03;21.40;99.90
5118;DHT22;2578;51.622;7.046;2023-07-29T07:45:29;21.80;99.90
5118;DHT22;2578;51.622;7.046;2023-07-29T07:47:56;21.70;99.90
5118;DHT22;2578;51.622;7.046;2023-07-29T07:50:22;21.50;99.90
5118;DHT22;2578;51.622;7.046;2023-07-29T07:52:49;21.30;99.90
5118;DHT22;2578;51.622;7.046;2023-07-29T07:55:15;21.40;99.90
5118;DHT22;2578;51.622;7.046;2023-07-29T07:57:40;21.30;99.90
5118;DHT22;2578;51.622;7.046;2023-07-29T08:00:06;21.10;99.90
5118;DHT22;2578;51.622;7.046;2023-07-29T08:02:32;21.40;99.90
5118;DHT22;2578;51.622;7.046;2023-07-29T08:04:58;21.80;99.90
5118;DHT22;2578;51.622;7.046;2023-07-29T08:07:23;22.00;99.90
5118;DHT22;2578;51.622;7.046;2023-07-29T08:09:49;22.10;99.90
5118;DHT22;2578;51.622;7.046;2023-07-29T08:12:14;21.80;99.90
5118;DHT22;2578;51.622;7.046;2023-07-29T08:14:40;22.10;99.90
5118;DHT22;2578;51.622;7.046;2023-07-29T08:17:06;22.40;99.90
5118;DHT22;2578;51.622;7.046;2023-07-29T08:19:32;22.50;99.90
5118;DHT22;2578;51.622;7.046;2023-07-29T08:21:57;23.00;99.90
5118;DHT22;2578;51.622;7.046;2023-07-29T08:24:23;23.40;93.00
5118;DHT22;2578;51.622;7.046;2023-07-29T08:26:49;23.40;94.90
5118;DHT22;2578;51.622;7.046;2023-07-29T08:29:15;23.00;99.40
5118;DHT22;2578;51.622;7.046;2023-07-29T08:31:40;23.00;99.90
5118;DHT22;2578;51.622;7.046;2023-07-29T08:34:06;23.40;99.90
5118;DHT22;2578;51.622;7.046;2023-07-29T08:36:32;23.30;95.30
5118;DHT22;2578;51.622;7.046;2023-07-29T08:38:57;22.90;99.90
5118;DHT22;2578;51.622;7.046;2023-07-29T08:41:31;22.40;98.90
5118;DHT22;2578;51.622;7.046;2023-07-29T08:46:33;22.00;99.90
5118;DHT22;2578;51.622;7.046;2023-07-29T08:48:59;21.90;99.90
5118;DHT22;2578;51.622;7.046;2023-07-29T08:51:26;21.90;99.90
5118;DHT22;2578;51.622;7.046;2023-07-29T08:53:52;22.80;99.90
5118;DHT22;2578;51.622;7.046;2023-07-29T08:56:18;22.80;99.90
5118;DHT22;2578;51.622;7.046;2023-07-29T08:58:44;22.80;99.90
5118;DHT22;2578;51.622;7.046;2023-07-29T09:01:10;22.60;99.90
5118;DHT22;2578;51.622;7.046;2023-07-29T09:03:36;23.40;99.90
5118;DHT22;2578;51.622;7.046;2023-07-29T09:06:02;23.50;99.90
5118;DHT22;2578;51.622;7.046;2023-07-29T09:08:29;23.90;71.20
5118;DHT22;2578;51.622;7.046;2023-07-29T09:10:55;23.90;59.50
5118;DHT22;2578;51.622;7.046;2023-07-29T09:13:21;23.70;58.90
5118;DHT22;2578;51.622;7.046;2023-07-29T09:15:47;23.50;90.10
5118;DHT22;2578;51.622;7.046;2023-07-29T09:18:19;23.10;96.00
5118;DHT22;2578;51.622;7.046;2023-07-29T09:20:49;23.30;95.50
5118;DHT22;2578;51.622;7.046;2023-07-29T09:23:14;23.60;92.20
5118;DHT22;2578;51.622;7.046;2023-07-29T09:25:40;23.40;73.10
5118;DHT22;2578;51.622;7.046;2023-07-29T09:28:11;23.30;69.80
5118;DHT22;2578;51.622;7.046;2023-07-29T09:30:41;23.60;87.40
5118;DHT22;2578;51.622;7.046;2023-07-29T09:33:08;23.70;70.80
5118;DHT22;2578;51.622;7.046;2023-07-29T09:35:36;23.80;70.30
5118;DHT22;2578;51.622;7.046;2023-07-29T09:38:02;23.90;81.30
5118;DHT22;2578;51.622;7.046;2023-07-29T09:40:37;23.70;83.50
5118;DHT22;2578;51.622;7.046;2023-07-29T09:43:04;23.90;74.30
5118;DHT22;2578;51.622;7.046;2023-07-29T09:45:33;24.10;71.90
5118;DHT22;2578;51.622;7.046;2023-07-29T09:47:59;24.00;69.30
5118;DHT22;2578;51.622;7.046;2023-07-29T09:50:25;24.50;65.20
5118;DHT22;2578;51.622;7.046;2023-07-29T09:52:52;24.30;61.30
5118;DHT22;2578;51.622;7.046;2023-07-29T09:55:19;23.70;95.70
5118;DHT22;2578;51.622;7.046;2023-07-29T09:57:45;23.60;96.80
5118;DHT22;2578;51.622;7.046;2023-07-29T10:00:11;23.40;97.70
5118;DHT22;2578;51.622;7.046;2023-07-29T10:02:41;23.10;99.90
5118;DHT22;2578;51.622;7.046;2023-07-29T10:05:08;22.90;99.90
5118;DHT22;2578;51.622;7.046;2023-07-29T10:07:37;22.80;99.90
5118;DHT22;2578;51.622;7.046;2023-07-29T10:10:07;22.70;99.90
5118;DHT22;2578;51.622;7.046;2023-07-29T10:12:34;22.90;99.90
5118;DHT22;2578;51.622;7.046;2023-07-29T10:15:05;23.50;99.90
5118;DHT22;2578;51.622;7.046;2023-07-29T10:17:37;23.90;99.90
5118;DHT22;2578;51.622;7.046;2023-07-29T10:20:04;24.40;88.20
5118;DHT22;2578;51.622;7.046;2023-07-29T10:22:35;24.20;74.40
5118;DHT22;2578;51.622;7.046;2023-07-29T10:25:04;24.30;86.10
5118;DHT22;2578;51.622;7.046;2023-07-29T10:27:42;24.90;85.30
5118;DHT22;2578;51.622;7.046;2023-07-29T10:30:11;25.40;34.40
5118;DHT22;2578;51.622;7.046;2023-07-29T10:32:38;25.60;45.30
5118;DHT22;2578;51.622;7.046;2023-07-29T10:35:04;25.80;13.80
5118;DHT22;2578;51.622;7.046;2023-07-29T10:37:30;25.30;23.80
5118;DHT22;2578;51.622;7.046;2023-07-29T10:39:56;24.80;67.60
5118;DHT22;2578;51.622;7.046;2023-07-29T10:42:22;24.90;58.00
5118;DHT22;2578;51.622;7.046;2023-07-29T10:44:49;25.70;52.60
5118;DHT22;2578;51.622;7.046;2023-07-29T10:47:25;26.00;2.30
5118;DHT22;2578;51.622;7.046;2023-07-29T10:49:57;25.80;19.60
5118;DHT22;2578;51.622;7.046;2023-07-29T10:55:00;25.80;2.30
5118;DHT22;2578;51.622;7.046;2023-07-29T10:57:34;25.80;5.90
5118;DHT22;2578;51.622;7.046;2023-07-29T11:00:00;26.10;4.90
5118;DHT22;2578;51.622;7.046;2023-07-29T11:02:39;26.20;1.00
5118;DHT22;2578;51.622;7.046;2023-07-29T11:05:07;26.10;1.00
5118;DHT22;2578;51.622;7.046;2023-07-29T11:07:44;25.60;1.00
5118;DHT22;2578;51.622;7.046;2023-07-29T11:10:10;25.10;8.20
5118;DHT22;2578;51.622;7.046;2023-07-29T11:20:12;26.60;1.00
5118;DHT22;2578;51.622;7.046;2023-07-29T11:22:38;27.20;1.00
5118;DHT22;2578;51.622;7.046;2023-07-29T11:25:04;26.30;1.00
5118;DHT22;2578;51.622;7.046;2023-07-29T11:27:33;25.70;1.00
5118;DHT22;2578;51.622;7.046;2023-07-29T11:29:59;25.30;1.00
5118;DHT22;2578;51.622;7.046;2023-07-29T11:32:26;25.10;1.00
5118;DHT22;2578;51.622;7.046;2023-07-29T11:34:51;25.50;1.00
5118;DHT22;2578;51.622;7.046;2023-07-29T11:37:17;25.10;1.00
5118;DHT22;2578;51.622;7.046;2023-07-29T11:39:44;25.00;1.00
5118;DHT22;2578;51.622;7.046;2023-07-29T11:42:14;24.40;28.50
5118;DHT22;2578;51.622;7.046;2023-07-29T11:44:40;24.90;30.40
5118;DHT22;2578;51.622;7.046;2023-07-29T11:47:12;25.20;25.30
5118;DHT22;2578;51.622;7.046;2023-07-29T11:49:39;25.20;4.20
5118;DHT22;2578;51.622;7.046;2023-07-29T11:52:09;25.10;18.40
5118;DHT22;2578;51.622;7.046;2023-07-29T11:54:36;24.60;24.50
5118;DHT22;2578;51.622;7.046;2023-07-29T11:57:05;24.20;31.70
5118;DHT22;2578;51.622;7.046;2023-07-29T11:59:32;23.90;78.20
5118;DHT22;2578;51.622;7.046;2023-07-29T12:02:00;23.90;79.10
5118;DHT22;2578;51.622;7.046;2023-07-29T12:04:26;24.80;83.10
5118;DHT22;2578;51.622;7.046;2023-07-29T12:06:52;25.00;53.20
5118;DHT22;2578;51.622;7.046;2023-07-29T12:09:17;25.10;38.50
5118;DHT22;2578;51.622;7.046;2023-07-29T12:11:44;25.60;8.70
5118;DHT22;2578;51.622;7.046;2023-07-29T12:14:10;26.30;1.00
5118;DHT22;2578;51.622;7.046;2023-07-29T12:16:43;26.40;1.00
5118;DHT22;2578;51.622;7.046;2023-07-29T12:19:08;27.60;1.00
5118;DHT22;2578;51.622;7.046;2023-07-29T12:21:37;26.00;1.00
5118;DHT22;2578;51.622;7.046;2023-07-29T12:24:03;24.80;28.70
5118;DHT22;2578;51.622;7.046;2023-07-29T12:26:29;24.70;26.70
5118;DHT22;2578;51.622;7.046;2023-07-29T12:28:55;24.70;45.60
5118;DHT22;2578;51.622;7.046;2023-07-29T12:31:27;24.70;56.90
5118;DHT22;2578;51.622;7.046;2023-07-29T12:33:56;24.10;55.50
5118;DHT22;2578;51.622;7.046;2023-07-29T12:36:21;24.10;65.70
5118;DHT22;2578;51.622;7.046;2023-07-29T12:38:47;24.50;54.40
5118;DHT22;2578;51.622;7.046;2023-07-29T12:41:12;25.00;18.10
5118;DHT22;2578;51.622;7.046;2023-07-29T12:43:38;25.50;9.40
5118;DHT22;2578;51.622;7.046;2023-07-29T12:46:04;25.60;9.50
5118;DHT22;2578;51.622;7.046;2023-07-29T12:48:29;26.10;1.00
5118;DHT22;2578;51.622;7.046;2023-07-29T12:50:55;25.80;1.00
5118;DHT22;2578;51.622;7.046;2023-07-29T12:53:21;25.50;1.00
5118;DHT22;2578;51.622;7.046;2023-07-29T12:55:46;25.50;1.00
5118;DHT22;2578;51.622;7.046;2023-07-29T12:58:12;25.60;1.00
5118;DHT22;2578;51.622;7.046;2023-07-29T13:00:37;25.60;1.00
5118;DHT22;2578;51.622;7.046;2023-07-29T13:03:03;25.90;1.00
5118;DHT22;2578;51.622;7.046;2023-07-29T13:05:31;25.90;1.00
5118;DHT22;2578;51.622;7.046;2023-07-29T13:07:56;25.50;1.00
5118;DHT22;2578;51.622;7.046;2023-07-29T13:10:22;25.60;1.00
5118;DHT22;2578;51.622;7.046;2023-07-29T13:12:48;26.00;1.00
5118;DHT22;2578;51.622;7.046;2023-07-29T13:15:14;26.70;1.00
5118;DHT22;2578;51.622;7.046;2023-07-29T13:17:40;26.80;1.00
5118;DHT22;2578;51.622;7.046;2023-07-29T13:20:07;26.30;1.00
5118;DHT22;2578;51.622;7.046;2023-07-29T13:22:32;25.60;1.00
5118;DHT22;2578;51.622;7.046;2023-07-29T13:24:58;24.90;1.00
5118;DHT22;2578;51.622;7.046;2023-07-29T13:27:23;24.70;1.00
5118;DHT22;2578;51.622;7.046;2023-07-29T13:29:50;25.00;1.00
5118;DHT22;2578;51.622;7.046;2023-07-29T13:32:16;24.80;4.50
5118;DHT22;2578;51.622;7.046;2023-07-29T13:34:41;24.90;4.20
5118;DHT22;2578;51.622;7.046;2023-07-29T13:37:07;24.80;6.30
5118;DHT22;2578;51.622;7.046;2023-07-29T13:39:33;24.70;3.10
5118;DHT22;2578;51.622;7.046;2023-07-29T13:41:58;24.70;8.50
5118;DHT22;2578;51.622;7.046;2023-07-29T13:44:24;24.40;26.60
5118;DHT22;2578;51.622;7.046;2023-07-29T13:46:49;24.30;77.10
5118;DHT22;2578;51.622;7.046;2023-07-29T13:49:15;23.60;99.90
5118;DHT22;2578;51.622;7.046;2023-07-29T13:51:41;23.00;99.90
5118;DHT22;2578;51.622;7.046;2023-07-29T13:54:08;20.90;99.90
5118;DHT22;2578;51.622;7.046;2023-07-29T13:56:33;20.50;99.90
5118;DHT22;2578;51.622;7.046;2023-07-29T13:58:59;19.60;99.90
5118;DHT22;2578;51.622;7.046;2023-07-29T14:01:24;19.00;99.90
5118;DHT22;2578;51.622;7.046;2023-07-29T14:03:50;18.50;99.90
5118;DHT22;2578;51.622;7.046;2023-07-29T14:06:16;18.40;99.90
5118;DHT22;2578;51.622;7.046;2023-07-29T14:08:41;18.20;99.90
5118;DHT22;2578;51.622;7.046;2023-07-29T14:11:07;18.10;99.90
5118;DHT22;2578;51.622;7.046;2023-07-29T14:13:33;17.70;99.90
5118;DHT22;2578;51.622;7.046;2023-07-29T14:16:01;17.60;99.90
5118;DHT22;2578;51.622;7.046;2023-07-29T14:18:28;17.50;99.90
5118;DHT22;2578;51.622;7.046;2023-07-29T14:20:53;17.30;99.90
5118;DHT22;2578;51.622;7.046;2023-07-29T14:23:19;17.10;99.90
5118;DHT22;2578;51.622;7.046;2023-07-29T14:25:45;16.90;99.90
5118;DHT22;2578;51.622;7.046;2023-07-29T14:28:10;16.70;99.90
5118;DHT22;2578;51.622;7.046;2023-07-29T14:30:36;16.60;99.90
5118;DHT22;2578;51.622;7.046;2023-07-29T14:33:03;16.50;99.90
5118;DHT22;2578;51.622;7.046;2023-07-29T14:35:28;16.50;99.90
5118;DHT22;2578;51.622;7.046;2023-07-29T14:37:54;16.50;99.90
5118;DHT22;2578;51.622;7.046;2023-07-29T14:40:20;16.50;99.90
5118;DHT22;2578;51.622;7.046;2023-07-29T14:42:45;16.50;99.90
5118;DHT22;2578;51.622;7.046;2023-07-29T14:45:11;16.80;99.90
5118;DHT22;2578;51.622;7.046;2023-07-29T14:47:36;17.10;99.90
5118;DHT22;2578;51.622;7.046;2023-07-29T14:50:02;17.90;99.90
5118;DHT22;2578;51.622;7.046;2023-07-29T14:52:28;18.40;99.90
5118;DHT22;2578;51.622;7.046;2023-07-29T14:54:53;18.90;99.90
5118;DHT22;2578;51.622;7.046;2023-07-29T14:57:19;18.80;99.90
5118;DHT22;2578;51.622;7.046;2023-07-29T14:59:44;19.20;99.90
5118;DHT22;2578;51.622;7.046;2023-07-29T15:02:10;19.50;99.90
5118;DHT22;2578;51.622;7.046;2023-07-29T15:04:36;20.10;99.90
5118;DHT22;2578;51.622;7.046;2023-07-29T15:07:02;20.00;99.90
5118;DHT22;2578;51.622;7.046;2023-07-29T15:09:27;20.00;99.90
5118;DHT22;2578;51.622;7.046;2023-07-29T15:11:53;20.20;99.90
5118;DHT22;2578;51.622;7.046;2023-07-29T15:14:19;20.50;99.90
5118;DHT22;2578;51.622;7.046;2023-07-29T15:16:44;20.70;99.90
5118;DHT22;2578;51.622;7.046;2023-07-29T15:19:10;20.60;99.90
5118;DHT22;2578;51.622;7.046;2023-07-29T15:21:35;20.80;99.90
5118;DHT22;2578;51.622;7.046;2023-07-29T15:24:01;21.30;99.90
5118;DHT22;2578;51.622;7.046;2023-07-29T15:26:27;21.50;99.90
5118;DHT22;2578;51.622;7.046;2023-07-29T15:28:53;21.80;99.90
5118;DHT22;2578;51.622;7.046;2023-07-29T15:31:19;22.00;99.90
5118;DHT22;2578;51.622;7.046;2023-07-29T15:33:44;22.50;99.90
5118;DHT22;2578;51.622;7.046;2023-07-29T15:36:10;22.50;99.90
5118;DHT22;2578;51.622;7.046;2023-07-29T15:38:35;22.80;99.90
5118;DHT22;2578;51.622;7.046;2023-07-29T15:41:01;22.80;99.90
5118;DHT22;2578;51.622;7.046;2023-07-29T15:43:26;22.00;99.90
5118;DHT22;2578;51.622;7.046;2023-07-29T15:45:52;22.00;99.90
5118;DHT22;2578;51.622;7.046;2023-07-29T15:48:18;21.60;99.90
5118;DHT22;2578;51.622;7.046;2023-07-29T15:50:44;21.70;99.90
5118;DHT22;2578;51.622;7.046;2023-07-29T15:53:09;22.10;99.90
5118;DHT22;2578;51.622;7.046;2023-07-29T15:55:35;22.50;99.90
5118;DHT22;2578;51.622;7.046;2023-07-29T15:58:00;22.70;99.90
5118;DHT22;2578;51.622;7.046;2023-07-29T16:00:26;23.00;99.90
5118;DHT22;2578;51.622;7.046;2023-07-29T16:02:53;23.40;99.90
5118;DHT22;2578;51.622;7.046;2023-07-29T16:05:19;23.90;99.90
5118;DHT22;2578;51.622;7.046;2023-07-29T16:07:45;24.20;99.90
5118;DHT22;2578;51.622;7.046;2023-07-29T16:10:10;24.40;99.90
5118;DHT22;2578;51.622;7.046;2023-07-29T16:12:36;24.60;99.90
5118;DHT22;2578;51.622;7.046;2023-07-29T16:15:07;24.70;99.90
5118;DHT22;2578;51.622;7.046;2023-07-29T16:17:34;24.90;99.90
5118;DHT22;2578;51.622;7.046;2023-07-29T16:20:02;24.90;99.90